sensor_id;sensor_type;location;lat;lon;timestamp;temperature;humidity
80964;DHT22;70425;59.322;13.486;2023-09-19T00:02:17;16.60;99.90
80964;DHT22;70425;59.322;13.486;2023-09-19T00:05:16;16.60;99.90
80964;DHT22;70425;59.322;13.486;2023-09-19T00:23:34;16.60;99.90
80964;DHT22;70425;59.322;13.486;2023-09-19T00:39:30;16.60;99.90
80964;DHT22;70425;59.322;13.486;2023-09-19T01:00:03;16.50;99.90
80964;DHT22;70425;59.322;13.486;2023-09-19T01:28:48;16.40;99.90
80964;DHT22;70425;59.322;13.486;2023-09-19T01:31:41;16.30;99.90
80964;DHT22;70425;59.322;13.486;2023-09-19T01:34:46;16.30;99.90
80964;DHT22;70425;59.322;13.486;2023-09-19T01:37:40;16.30;99.90
80964;DHT22;70425;59.322;13.486;2023-09-19T03:01:39;16.70;99.90
80964;DHT22;70425;59.322;13.486;2023-09-19T03:04:30;16.60;99.90
80964;DHT22;70425;59.322;13.486;2023-09-19T03:07:38;16.50;99.90
80964;DHT22;70425;59.322;13.486;2023-09-19T03:11:09;16.60;99.90
80964;DHT22;70425;59.322;13.486;2023-09-19T03:37:52;16.50;99.90
80964;DHT22;70425;59.322;13.486;2023-09-19T03:47:20;16.50;99.90
80964;DHT22;70425;59.322;13.486;2023-09-19T04:00:57;16.60;99.90
80964;DHT22;70425;59.322;13.486;2023-09-19T04:11:29;16.50;99.90
80964;DHT22;70425;59.322;13.486;2023-09-19T04:20:49;16.60;99.90
80964;DHT22;70425;59.322;13.486;2023-09-19T04:23:42;16.50;99.90
80964;DHT22;70425;59.322;13.486;2023-09-19T04:45:59;16.70;99.90
80964;DHT22;70425;59.322;13.486;2023-09-19T04:48:50;16.70;99.90
80964;DHT22;70425;59.322;13.486;2023-09-19T04:51:39;16.70;99.90
80964;DHT22;70425;59.322;13.486;2023-09-19T04:54:30;16.60;99.90
80964;DHT22;70425;59.322;13.486;2023-09-19T05:13:51;16.60;99.90
80964;DHT22;70425;59.322;13.486;2023-09-19T05:29:59;16.70;99.90
80964;DHT22;70425;59.322;13.486;2023-09-19T06:00:44;16.50;99.90
80964;DHT22;70425;59.322;13.486;2023-09-19T06:06:25;16.70;99.90
80964;DHT22;70425;59.322;13.486;2023-09-19T06:09:20;16.70;99.90
80964;DHT22;70425;59.322;13.486;2023-09-19T06:12:19;16.70;99.90
80964;DHT22;70425;59.322;13.486;2023-09-19T06:44:04;16.90;99.90
80964;DHT22;70425;59.322;13.486;2023-09-19T07:00:55;16.80;99.90
80964;DHT22;70425;59.322;13.486;2023-09-19T07:17:35;16.50;99.90
80964;DHT22;70425;59.322;13.486;2023-09-19T07:35:21;16.60;99.90
80964;DHT22;70425;59.322;13.486;2023-09-19T07:38:10;16.70;99.90
80964;DHT22;70425;59.322;13.486;2023-09-19T08:07:44;16.70;99.90
80964;DHT22;70425;59.322;13.486;2023-09-19T08:10:35;16.40;99.90
80964;DHT22;70425;59.322;13.486;2023-09-19T08:13:25;16.40;99.90
80964;DHT22;70425;59.322;13.486;2023-09-19T08:33:27;16.80;99.90
80964;DHT22;70425;59.322;13.486;2023-09-19T08:36:16;17.30;99.90
80964;DHT22;70425;59.322;13.486;2023-09-19T08:41:58;16.80;99.90
80964;DHT22;70425;59.322;13.486;2023-09-19T08:44:47;16.50;99.90
80964;DHT22;70425;59.322;13.486;2023-09-19T08:50:31;17.00;99.90
80964;DHT22;70425;59.322;13.486;2023-09-19T08:53:31;17.30;99.90
80964;DHT22;70425;59.322;13.486;2023-09-19T08:56:23;17.30;99.90
80964;DHT22;70425;59.322;13.486;2023-09-19T08:59:14;17.10;99.90
80964;DHT22;70425;59.322;13.486;2023-09-19T09:02:03;17.50;99.90
80964;DHT22;70425;59.322;13.486;2023-09-19T09:18:31;17.60;99.90
80964;DHT22;70425;59.322;13.486;2023-09-19T09:24:06;17.30;99.90
80964;DHT22;70425;59.322;13.486;2023-09-19T09:26:56;17.20;99.90
80964;DHT22;70425;59.322;13.486;2023-09-19T09:29:46;17.10;99.90
80964;DHT22;70425;59.322;13.486;2023-09-19T09:32:37;16.90;99.90
80964;DHT22;70425;59.322;13.486;2023-09-19T09:35:26;17.00;99.90
80964;DHT22;70425;59.322;13.486;2023-09-19T09:38:16;17.20;99.90
80964;DHT22;70425;59.322;13.486;2023-09-19T09:41:06;17.20;99.90
80964;DHT22;70425;59.322;13.486;2023-09-19T09:43:54;17.20;99.90
80964;DHT22;70425;59.322;13.486;2023-09-19T09:46:44;17.10;99.90
80964;DHT22;70425;59.322;13.486;2023-09-19T09:50:05;17.20;99.90
80964;DHT22;70425;59.322;13.486;2023-09-19T09:52:57;17.00;99.90
80964;DHT22;70425;59.322;13.486;2023-09-19T09:56:01;17.10;99.90
80964;DHT22;70425;59.322;13.486;2023-09-19T09:58:52;16.90;99.90
80964;DHT22;70425;59.322;13.486;2023-09-19T10:02:02;16.90;99.90
80964;DHT22;70425;59.322;13.486;2023-09-19T10:21:19;17.00;99.90
80964;DHT22;70425;59.322;13.486;2023-09-19T10:24:10;16.60;99.90
80964;DHT22;70425;59.322;13.486;2023-09-19T10:27:00;16.30;99.90
80964;DHT22;70425;59.322;13.486;2023-09-19T10:29:50;16.30;99.90
80964;DHT22;70425;59.322;13.486;2023-09-19T10:32:43;16.30;99.90
80964;DHT22;70425;59.322;13.486;2023-09-19T10:35:33;16.40;99.90
80964;DHT22;70425;59.322;13.486;2023-09-19T10:38:25;16.20;99.90
80964;DHT22;70425;59.322;13.486;2023-09-19T10:41:17;16.20;99.90
80964;DHT22;70425;59.322;13.486;2023-09-19T10:44:07;16.20;99.90
80964;DHT22;70425;59.322;13.486;2023-09-19T10:52:31;15.80;99.90
80964;DHT22;70425;59.322;13.486;2023-09-19T10:55:22;15.40;99.90
80964;DHT22;70425;59.322;13.486;2023-09-19T11:02:31;14.50;99.90
80964;DHT22;70425;59.322;13.486;2023-09-19T11:05:20;14.20;99.90
80964;DHT22;70425;59.322;13.486;2023-09-19T11:08:11;14.20;99.90
80964;DHT22;70425;59.322;13.486;2023-09-19T11:11:00;14.30;99.90
80964;DHT22;70425;59.322;13.486;2023-09-19T11:14:08;14.50;99.90
80964;DHT22;70425;59.322;13.486;2023-09-19T11:20:34;14.40;99.90
80964;DHT22;70425;59.322;13.486;2023-09-19T11:23:33;14.20;99.90
80964;DHT22;70425;59.322;13.486;2023-09-19T11:26:40;14.20;99.90
80964;DHT22;70425;59.322;13.486;2023-09-19T11:32:17;15.00;99.90
80964;DHT22;70425;59.322;13.486;2023-09-19T11:35:11;15.20;99.90
80964;DHT22;70425;59.322;13.486;2023-09-19T11:38:01;15.10;99.90
80964;DHT22;70425;59.322;13.486;2023-09-19T11:43:35;15.70;99.90
80964;DHT22;70425;59.322;13.486;2023-09-19T11:49:12;15.60;99.90
80964;DHT22;70425;59.322;13.486;2023-09-19T11:52:04;15.70;99.90
80964;DHT22;70425;59.322;13.486;2023-09-19T11:54:56;15.50;99.90
80964;DHT22;70425;59.322;13.486;2023-09-19T11:57:45;15.50;99.90
80964;DHT22;70425;59.322;13.486;2023-09-19T12:00:34;15.50;99.90
80964;DHT22;70425;59.322;13.486;2023-09-19T12:03:25;15.50;99.90
80964;DHT22;70425;59.322;13.486;2023-09-19T12:06:16;15.50;99.90
80964;DHT22;70425;59.322;13.486;2023-09-19T12:09:06;15.60;99.90
80964;DHT22;70425;59.322;13.486;2023-09-19T12:11:55;15.50;99.90
80964;DHT22;70425;59.322;13.486;2023-09-19T12:14:49;15.50;99.90
80964;DHT22;70425;59.322;13.486;2023-09-19T12:17:41;15.40;99.90
80964;DHT22;70425;59.322;13.486;2023-09-19T12:20:48;15.30;99.90
80964;DHT22;70425;59.322;13.486;2023-09-19T12:23:38;15.30;99.90
80964;DHT22;70425;59.322;13.486;2023-09-19T12:26:29;15.30;99.90
80964;DHT22;70425;59.322;13.486;2023-09-19T12:29:20;15.10;99.90
80964;DHT22;70425;59.322;13.486;2023-09-19T12:34:56;15.00;99.90
80964;DHT22;70425;59.322;13.486;2023-09-19T12:37:47;15.00;99.90
80964;DHT22;70425;59.322;13.486;2023-09-19T12:43:21;15.40;99.90
80964;DHT22;70425;59.322;13.486;2023-09-19T12:49:15;15.00;99.90
80964;DHT22;70425;59.322;13.486;2023-09-19T12:52:06;14.90;99.90
80964;DHT22;70425;59.322;13.486;2023-09-19T12:54:55;14.90;99.90
80964;DHT22;70425;59.322;13.486;2023-09-19T13:11:13;15.00;99.90
80964;DHT22;70425;59.322;13.486;2023-09-19T13:14:16;15.20;99.90
80964;DHT22;70425;59.322;13.486;2023-09-19T13:17:06;15.00;99.90
80964;DHT22;70425;59.322;13.486;2023-09-19T13:19:57;15.00;99.90
80964;DHT22;70425;59.322;13.486;2023-09-19T13:22:46;15.20;99.90
80964;DHT22;70425;59.322;13.486;2023-09-19T13:28:31;15.30;99.90
80964;DHT22;70425;59.322;13.486;2023-09-19T13:34:07;15.10;99.90
80964;DHT22;70425;59.322;13.486;2023-09-19T13:36:56;15.30;99.90
80964;DHT22;70425;59.322;13.486;2023-09-19T13:39:45;15.40;99.90
80964;DHT22;70425;59.322;13.486;2023-09-19T13:42:35;15.40;99.90
80964;DHT22;70425;59.322;13.486;2023-09-19T13:45:27;15.30;99.90
80964;DHT22;70425;59.322;13.486;2023-09-19T13:48:17;15.20;99.90
80964;DHT22;70425;59.322;13.486;2023-09-19T13:51:09;15.10;99.90
80964;DHT22;70425;59.322;13.486;2023-09-19T13:53:58;15.10;99.90
80964;DHT22;70425;59.322;13.486;2023-09-19T13:56:47;15.00;99.90
80964;DHT22;70425;59.322;13.486;2023-09-19T13:59:35;15.10;99.90
80964;DHT22;70425;59.322;13.486;2023-09-19T14:02:23;15.00;99.90
80964;DHT22;70425;59.322;13.486;2023-09-19T14:08:27;15.10;99.90
80964;DHT22;70425;59.322;13.486;2023-09-19T14:24:19;15.10;99.90
80964;DHT22;70425;59.322;13.486;2023-09-19T14:29:49;15.00;99.90
80964;DHT22;70425;59.322;13.486;2023-09-19T14:32:38;15.00;99.90
80964;DHT22;70425;59.322;13.486;2023-09-19T14:35:28;14.70;99.90
80964;DHT22;70425;59.322;13.486;2023-09-19T14:38:17;14.70;99.90
80964;DHT22;70425;59.322;13.486;2023-09-19T14:41:06;14.70;99.90
80964;DHT22;70425;59.322;13.486;2023-09-19T14:46:38;14.80;99.90
80964;DHT22;70425;59.322;13.486;2023-09-19T14:49:26;14.90;99.90
80964;DHT22;70425;59.322;13.486;2023-09-19T14:52:15;15.00;99.90
80964;DHT22;70425;59.322;13.486;2023-09-19T14:55:04;15.10;99.90
80964;DHT22;70425;59.322;13.486;2023-09-19T14:57:53;15.00;99.90
80964;DHT22;70425;59.322;13.486;2023-09-19T15:00:42;15.00;99.90
80964;DHT22;70425;59.322;13.486;2023-09-19T15:03:33;14.90;99.90
80964;DHT22;70425;59.322;13.486;2023-09-19T15:06:23;14.70;99.90
80964;DHT22;70425;59.322;13.486;2023-09-19T15:09:14;14.50;99.90
80964;DHT22;70425;59.322;13.486;2023-09-19T15:12:05;14.40;99.90
80964;DHT22;70425;59.322;13.486;2023-09-19T15:14:54;14.50;99.90
80964;DHT22;70425;59.322;13.486;2023-09-19T15:17:43;14.60;99.90
80964;DHT22;70425;59.322;13.486;2023-09-19T15:20:32;14.70;99.90
80964;DHT22;70425;59.322;13.486;2023-09-19T15:23:21;14.80;99.90
80964;DHT22;70425;59.322;13.486;2023-09-19T15:26:11;14.80;99.90
80964;DHT22;70425;59.322;13.486;2023-09-19T15:31:45;14.60;99.90
80964;DHT22;70425;59.322;13.486;2023-09-19T15:34:33;14.70;99.90
80964;DHT22;70425;59.322;13.486;2023-09-19T15:37:22;14.70;99.90
80964;DHT22;70425;59.322;13.486;2023-09-19T15:40:11;14.60;99.90
80964;DHT22;70425;59.322;13.486;2023-09-19T15:43:00;14.50;99.90
80964;DHT22;70425;59.322;13.486;2023-09-19T15:45:50;14.50;99.90
80964;DHT22;70425;59.322;13.486;2023-09-19T15:48:38;14.50;99.90
80964;DHT22;70425;59.322;13.486;2023-09-19T15:51:27;14.50;99.90
80964;DHT22;70425;59.322;13.486;2023-09-19T15:54:17;14.50;99.90
80964;DHT22;70425;59.322;13.486;2023-09-19T15:59:52;14.30;99.90
80964;DHT22;70425;59.322;13.486;2023-09-19T16:02:41;14.20;99.90
80964;DHT22;70425;59.322;13.486;2023-09-19T16:05:35;14.00;99.90
80964;DHT22;70425;59.322;13.486;2023-09-19T16:11:18;13.90;99.90
80964;DHT22;70425;59.322;13.486;2023-09-19T16:31:49;13.70;99.90
80964;DHT22;70425;59.322;13.486;2023-09-19T16:34:39;13.70;99.90
80964;DHT22;70425;59.322;13.486;2023-09-19T16:37:28;13.70;99.90
80964;DHT22;70425;59.322;13.486;2023-09-19T16:40:18;13.60;99.90
80964;DHT22;70425;59.322;13.486;2023-09-19T16:43:06;13.60;99.90
80964;DHT22;70425;59.322;13.486;2023-09-19T16:45:55;13.70;99.90
80964;DHT22;70425;59.322;13.486;2023-09-19T16:48:45;13.60;99.90
80964;DHT22;70425;59.322;13.486;2023-09-19T16:51:34;13.60;99.90
80964;DHT22;70425;59.322;13.486;2023-09-19T16:54:23;13.60;99.90
80964;DHT22;70425;59.322;13.486;2023-09-19T17:00:07;13.60;99.90
80964;DHT22;70425;59.322;13.486;2023-09-19T17:02:57;13.70;99.90
80964;DHT22;70425;59.322;13.486;2023-09-19T17:05:48;13.60;99.90
80964;DHT22;70425;59.322;13.486;2023-09-19T17:08:36;13.60;99.90
80964;DHT22;70425;59.322;13.486;2023-09-19T17:11:26;13.60;99.90
80964;DHT22;70425;59.322;13.486;2023-09-19T17:14:15;13.70;99.90
80964;DHT22;70425;59.322;13.486;2023-09-19T17:17:04;13.60;99.90
80964;DHT22;70425;59.322;13.486;2023-09-19T17:19:53;13.70;99.90
80964;DHT22;70425;59.322;13.486;2023-09-19T17:22:42;13.60;99.90
80964;DHT22;70425;59.322;13.486;2023-09-19T17:25:31;13.70;99.90
80964;DHT22;70425;59.322;13.486;2023-09-19T17:28:20;13.70;99.90
80964;DHT22;70425;59.322;13.486;2023-09-19T17:31:11;13.70;99.90
80964;DHT22;70425;59.322;13.486;2023-09-19T17:33:59;13.70;99.90
80964;DHT22;70425;59.322;13.486;2023-09-19T17:36:48;13.70;99.90
80964;DHT22;70425;59.322;13.486;2023-09-19T17:39:37;13.70;99.90
80964;DHT22;70425;59.322;13.486;2023-09-19T17:42:26;13.70;99.90
80964;DHT22;70425;59.322;13.486;2023-09-19T17:45:16;13.70;99.90
80964;DHT22;70425;59.322;13.486;2023-09-19T17:48:07;13.70;99.90
80964;DHT22;70425;59.322;13.486;2023-09-19T17:51:00;13.60;99.90
80964;DHT22;70425;59.322;13.486;2023-09-19T17:56:35;13.40;99.90
80964;DHT22;70425;59.322;13.486;2023-09-19T17:59:24;13.40;99.90
80964;DHT22;70425;59.322;13.486;2023-09-19T18:15:49;13.20;99.90
80964;DHT22;70425;59.322;13.486;2023-09-19T18:21:30;13.00;99.90
80964;DHT22;70425;59.322;13.486;2023-09-19T18:24:20;13.00;99.90
80964;DHT22;70425;59.322;13.486;2023-09-19T18:27:08;13.00;99.90
80964;DHT22;70425;59.322;13.486;2023-09-19T18:29:57;12.90;99.90
80964;DHT22;70425;59.322;13.486;2023-09-19T18:32:45;12.90;99.90
80964;DHT22;70425;59.322;13.486;2023-09-19T18:35:36;12.80;99.90
80964;DHT22;70425;59.322;13.486;2023-09-19T18:38:25;12.80;99.90
80964;DHT22;70425;59.322;13.486;2023-09-19T20:49:06;11.80;99.90
80964;DHT22;70425;59.322;13.486;2023-09-19T21:00:17;11.80;99.90
80964;DHT22;70425;59.322;13.486;2023-09-19T21:07:32;11.80;99.90
80964;DHT22;70425;59.322;13.486;2023-09-19T21:14:50;11.80;99.90
80964;DHT22;70425;59.322;13.486;2023-09-19T22:11:19;12.00;99.90
80964;DHT22;70425;59.322;13.486;2023-09-19T23:09:03;12.20;99.90
80964;DHT22;70425;59.322;13.486;2023-09-19T23:20:12;12.20;99.90
80964;DHT22;70425;59.322;13.486;2023-09-19T23:23:04;12.30;99.90
